sensor_id;sensor_type;location;lat;lon;timestamp;temperature;humidity
16974;DHT22;8603;46.944;7.412;2022-07-05T00:02:04;19.30;99.90
16974;DHT22;8603;46.944;7.412;2022-07-05T00:04:29;19.30;99.90
16974;DHT22;8603;46.944;7.412;2022-07-05T00:06:55;19.30;99.90
16974;DHT22;8603;46.944;7.412;2022-07-05T00:09:39;19.20;99.90
16974;DHT22;8603;46.944;7.412;2022-07-05T00:12:05;19.20;99.90
16974;DHT22;8603;46.944;7.412;2022-07-05T00:14:30;19.20;99.90
16974;DHT22;8603;46.944;7.412;2022-07-05T00:16:56;19.10;99.90
16974;DHT22;8603;46.944;7.412;2022-07-05T00:19:22;19.00;99.90
16974;DHT22;8603;46.944;7.412;2022-07-05T00:21:47;19.00;99.90
16974;DHT22;8603;46.944;7.412;2022-07-05T00:24:13;19.00;99.90
16974;DHT22;8603;46.944;7.412;2022-07-05T00:26:39;19.00;99.90
16974;DHT22;8603;46.944;7.412;2022-07-05T00:29:04;19.00;99.90
16974;DHT22;8603;46.944;7.412;2022-07-05T00:31:30;19.00;99.90
16974;DHT22;8603;46.944;7.412;2022-07-05T00:33:55;19.00;99.90
16974;DHT22;8603;46.944;7.412;2022-07-05T00:36:21;18.90;99.90
16974;DHT22;8603;46.944;7.412;2022-07-05T00:38:46;18.90;99.90
16974;DHT22;8603;46.944;7.412;2022-07-05T00:41:12;18.90;99.90
16974;DHT22;8603;46.944;7.412;2022-07-05T00:43:40;18.90;99.90
16974;DHT22;8603;46.944;7.412;2022-07-05T00:46:16;18.90;99.90
16974;DHT22;8603;46.944;7.412;2022-07-05T00:48:41;18.90;99.90
16974;DHT22;8603;46.944;7.412;2022-07-05T00:51:07;18.90;99.90
16974;DHT22;8603;46.944;7.412;2022-07-05T00:53:32;18.90;99.90
16974;DHT22;8603;46.944;7.412;2022-07-05T00:55:58;18.90;99.90
16974;DHT22;8603;46.944;7.412;2022-07-05T00:58:24;18.90;99.90
16974;DHT22;8603;46.944;7.412;2022-07-05T01:00:49;18.90;99.90
16974;DHT22;8603;46.944;7.412;2022-07-05T01:03:15;18.80;99.90
16974;DHT22;8603;46.944;7.412;2022-07-05T01:05:40;18.70;99.90
16974;DHT22;8603;46.944;7.412;2022-07-05T01:08:06;18.60;99.90
16974;DHT22;8603;46.944;7.412;2022-07-05T01:10:31;18.60;99.90
16974;DHT22;8603;46.944;7.412;2022-07-05T01:12:57;18.50;99.90
16974;DHT22;8603;46.944;7.412;2022-07-05T01:15:23;18.40;99.90
16974;DHT22;8603;46.944;7.412;2022-07-05T01:17:49;18.40;99.90
16974;DHT22;8603;46.944;7.412;2022-07-05T01:20:15;18.30;99.90
16974;DHT22;8603;46.944;7.412;2022-07-05T01:22:53;18.30;99.90
16974;DHT22;8603;46.944;7.412;2022-07-05T01:25:20;18.20;99.90
16974;DHT22;8603;46.944;7.412;2022-07-05T01:27:47;18.20;99.90
16974;DHT22;8603;46.944;7.412;2022-07-05T01:30:13;18.20;99.90
16974;DHT22;8603;46.944;7.412;2022-07-05T01:32:39;18.20;99.90
16974;DHT22;8603;46.944;7.412;2022-07-05T01:35:05;18.10;99.90
16974;DHT22;8603;46.944;7.412;2022-07-05T01:37:32;18.10;99.90
16974;DHT22;8603;46.944;7.412;2022-07-05T01:39:58;18.10;99.90
16974;DHT22;8603;46.944;7.412;2022-07-05T01:42:26;18.10;99.90
16974;DHT22;8603;46.944;7.412;2022-07-05T01:44:52;18.00;99.90
16974;DHT22;8603;46.944;7.412;2022-07-05T01:47:17;18.00;99.90
16974;DHT22;8603;46.944;7.412;2022-07-05T01:49:46;18.00;99.90
16974;DHT22;8603;46.944;7.412;2022-07-05T01:52:13;17.90;99.90
16974;DHT22;8603;46.944;7.412;2022-07-05T01:54:39;17.90;99.90
16974;DHT22;8603;46.944;7.412;2022-07-05T01:57:06;17.90;99.90
16974;DHT22;8603;46.944;7.412;2022-07-05T01:59:36;17.90;99.90
16974;DHT22;8603;46.944;7.412;2022-07-05T02:02:03;17.90;99.90
16974;DHT22;8603;46.944;7.412;2022-07-05T02:04:29;17.90;99.90
16974;DHT22;8603;46.944;7.412;2022-07-05T02:06:55;17.90;99.90
16974;DHT22;8603;46.944;7.412;2022-07-05T02:09:21;17.90;99.90
16974;DHT22;8603;46.944;7.412;2022-07-05T02:11:46;17.90;99.90
16974;DHT22;8603;46.944;7.412;2022-07-05T02:14:12;17.90;99.90
16974;DHT22;8603;46.944;7.412;2022-07-05T02:16:38;17.90;99.90
16974;DHT22;8603;46.944;7.412;2022-07-05T02:19:04;17.90;99.90
16974;DHT22;8603;46.944;7.412;2022-07-05T02:21:29;17.90;99.90
16974;DHT22;8603;46.944;7.412;2022-07-05T02:23:55;17.90;99.90
16974;DHT22;8603;46.944;7.412;2022-07-05T02:26:21;17.90;99.90
16974;DHT22;8603;46.944;7.412;2022-07-05T02:28:47;17.80;99.90
16974;DHT22;8603;46.944;7.412;2022-07-05T02:31:13;17.80;99.90
16974;DHT22;8603;46.944;7.412;2022-07-05T02:33:38;17.80;99.90
16974;DHT22;8603;46.944;7.412;2022-07-05T02:36:10;17.80;99.90
16974;DHT22;8603;46.944;7.412;2022-07-05T02:38:37;17.80;99.90
16974;DHT22;8603;46.944;7.412;2022-07-05T02:41:12;17.80;99.90
16974;DHT22;8603;46.944;7.412;2022-07-05T02:43:38;17.80;99.90
16974;DHT22;8603;46.944;7.412;2022-07-05T02:46:05;17.80;99.90
16974;DHT22;8603;46.944;7.412;2022-07-05T02:48:32;17.80;99.90
16974;DHT22;8603;46.944;7.412;2022-07-05T02:50:58;17.80;99.90
16974;DHT22;8603;46.944;7.412;2022-07-05T02:53:24;17.80;99.90
16974;DHT22;8603;46.944;7.412;2022-07-05T02:55:49;17.80;99.90
16974;DHT22;8603;46.944;7.412;2022-07-05T02:58:15;17.80;99.90
16974;DHT22;8603;46.944;7.412;2022-07-05T03:00:46;17.80;99.90
16974;DHT22;8603;46.944;7.412;2022-07-05T03:03:13;17.70;99.90
16974;DHT22;8603;46.944;7.412;2022-07-05T03:05:38;17.70;99.90
16974;DHT22;8603;46.944;7.412;2022-07-05T03:08:04;17.60;99.90
16974;DHT22;8603;46.944;7.412;2022-07-05T03:10:30;17.60;99.90
16974;DHT22;8603;46.944;7.412;2022-07-05T03:12:56;17.60;99.90
16974;DHT22;8603;46.944;7.412;2022-07-05T03:15:21;17.60;99.90
16974;DHT22;8603;46.944;7.412;2022-07-05T03:17:47;17.60;99.90
16974;DHT22;8603;46.944;7.412;2022-07-05T03:20:12;17.60;99.90
16974;DHT22;8603;46.944;7.412;2022-07-05T03:22:38;17.60;99.90
16974;DHT22;8603;46.944;7.412;2022-07-05T03:25:05;17.70;99.90
16974;DHT22;8603;46.944;7.412;2022-07-05T03:27:31;17.70;99.90
16974;DHT22;8603;46.944;7.412;2022-07-05T03:29:57;17.70;99.90
16974;DHT22;8603;46.944;7.412;2022-07-05T03:32:22;17.80;99.90
16974;DHT22;8603;46.944;7.412;2022-07-05T03:34:48;17.80;99.90
16974;DHT22;8603;46.944;7.412;2022-07-05T03:37:14;17.80;99.90
16974;DHT22;8603;46.944;7.412;2022-07-05T03:39:39;17.80;99.90
16974;DHT22;8603;46.944;7.412;2022-07-05T03:42:05;17.70;99.90
16974;DHT22;8603;46.944;7.412;2022-07-05T03:44:34;17.70;99.90
16974;DHT22;8603;46.944;7.412;2022-07-05T03:46:59;17.60;99.90
16974;DHT22;8603;46.944;7.412;2022-07-05T03:49:25;17.70;99.90
16974;DHT22;8603;46.944;7.412;2022-07-05T03:51:51;17.70;99.90
16974;DHT22;8603;46.944;7.412;2022-07-05T03:54:16;17.60;99.90
16974;DHT22;8603;46.944;7.412;2022-07-05T03:56:42;17.70;99.90
16974;DHT22;8603;46.944;7.412;2022-07-05T03:59:08;17.60;99.90
16974;DHT22;8603;46.944;7.412;2022-07-05T04:01:33;17.70;99.90
16974;DHT22;8603;46.944;7.412;2022-07-05T04:03:59;17.70;99.90
16974;DHT22;8603;46.944;7.412;2022-07-05T04:06:25;17.70;99.90
16974;DHT22;8603;46.944;7.412;2022-07-05T04:08:50;17.70;99.90
16974;DHT22;8603;46.944;7.412;2022-07-05T04:11:16;17.70;99.90
16974;DHT22;8603;46.944;7.412;2022-07-05T04:13:42;17.70;99.90
16974;DHT22;8603;46.944;7.412;2022-07-05T04:16:08;17.70;99.90
16974;DHT22;8603;46.944;7.412;2022-07-05T04:18:35;17.70;99.90
16974;DHT22;8603;46.944;7.412;2022-07-05T04:21:01;17.70;99.90
16974;DHT22;8603;46.944;7.412;2022-07-05T04:23:26;17.70;99.90
16974;DHT22;8603;46.944;7.412;2022-07-05T04:25:52;17.70;99.90
16974;DHT22;8603;46.944;7.412;2022-07-05T04:28:17;17.70;99.90
16974;DHT22;8603;46.944;7.412;2022-07-05T04:30:43;17.70;99.90
16974;DHT22;8603;46.944;7.412;2022-07-05T04:33:08;17.80;99.90
16974;DHT22;8603;46.944;7.412;2022-07-05T04:35:34;17.80;99.90
16974;DHT22;8603;46.944;7.412;2022-07-05T04:38:00;17.80;99.90
16974;DHT22;8603;46.944;7.412;2022-07-05T04:40:25;17.80;99.90
16974;DHT22;8603;46.944;7.412;2022-07-05T04:42:51;17.80;99.90
16974;DHT22;8603;46.944;7.412;2022-07-05T04:45:17;17.80;99.90
16974;DHT22;8603;46.944;7.412;2022-07-05T04:47:42;17.80;99.90
16974;DHT22;8603;46.944;7.412;2022-07-05T04:50:08;17.80;99.90
16974;DHT22;8603;46.944;7.412;2022-07-05T04:52:34;17.90;99.90
16974;DHT22;8603;46.944;7.412;2022-07-05T04:55:00;17.90;99.90
16974;DHT22;8603;46.944;7.412;2022-07-05T04:57:25;17.90;99.90
16974;DHT22;8603;46.944;7.412;2022-07-05T04:59:51;17.90;99.90
16974;DHT22;8603;46.944;7.412;2022-07-05T05:02:17;17.90;99.90
16974;DHT22;8603;46.944;7.412;2022-07-05T05:04:42;17.90;99.90
16974;DHT22;8603;46.944;7.412;2022-07-05T05:07:08;18.00;99.90
16974;DHT22;8603;46.944;7.412;2022-07-05T05:09:34;18.00;99.90
16974;DHT22;8603;46.944;7.412;2022-07-05T05:11:59;18.00;99.90
16974;DHT22;8603;46.944;7.412;2022-07-05T05:14:25;18.10;99.90
16974;DHT22;8603;46.944;7.412;2022-07-05T05:16:50;18.10;99.90
16974;DHT22;8603;46.944;7.412;2022-07-05T05:19:16;18.10;99.90
16974;DHT22;8603;46.944;7.412;2022-07-05T05:21:42;18.10;99.90
16974;DHT22;8603;46.944;7.412;2022-07-05T05:24:07;18.20;99.90
16974;DHT22;8603;46.944;7.412;2022-07-05T05:26:33;18.20;99.90
16974;DHT22;8603;46.944;7.412;2022-07-05T05:28:59;18.20;99.90
16974;DHT22;8603;46.944;7.412;2022-07-05T05:31:24;18.20;99.90
16974;DHT22;8603;46.944;7.412;2022-07-05T05:33:50;18.30;99.90
16974;DHT22;8603;46.944;7.412;2022-07-05T05:36:16;18.30;99.90
16974;DHT22;8603;46.944;7.412;2022-07-05T05:38:41;18.30;99.90
16974;DHT22;8603;46.944;7.412;2022-07-05T05:41:07;18.40;99.90
16974;DHT22;8603;46.944;7.412;2022-07-05T05:43:32;18.40;99.90
16974;DHT22;8603;46.944;7.412;2022-07-05T05:45:59;18.50;99.90
16974;DHT22;8603;46.944;7.412;2022-07-05T05:48:25;18.50;99.90
16974;DHT22;8603;46.944;7.412;2022-07-05T05:50:50;18.50;99.90
16974;DHT22;8603;46.944;7.412;2022-07-05T05:53:17;18.50;99.90
16974;DHT22;8603;46.944;7.412;2022-07-05T05:55:42;18.60;99.90
16974;DHT22;8603;46.944;7.412;2022-07-05T06:00:38;18.70;99.90
16974;DHT22;8603;46.944;7.412;2022-07-05T06:03:03;18.70;99.90
16974;DHT22;8603;46.944;7.412;2022-07-05T06:05:29;18.80;99.90
16974;DHT22;8603;46.944;7.412;2022-07-05T06:07:55;18.80;99.90
16974;DHT22;8603;46.944;7.412;2022-07-05T06:10:23;18.80;99.90
16974;DHT22;8603;46.944;7.412;2022-07-05T06:12:50;19.00;99.90
16974;DHT22;8603;46.944;7.412;2022-07-05T06:15:16;19.00;99.90
16974;DHT22;8603;46.944;7.412;2022-07-05T06:17:42;19.10;99.90
16974;DHT22;8603;46.944;7.412;2022-07-05T06:20:16;19.50;99.90
16974;DHT22;8603;46.944;7.412;2022-07-05T06:22:43;20.10;99.90
16974;DHT22;8603;46.944;7.412;2022-07-05T06:25:09;20.40;99.90
16974;DHT22;8603;46.944;7.412;2022-07-05T06:27:50;20.60;99.90
16974;DHT22;8603;46.944;7.412;2022-07-05T06:30:18;20.70;99.90
16974;DHT22;8603;46.944;7.412;2022-07-05T06:32:45;20.80;99.90
16974;DHT22;8603;46.944;7.412;2022-07-05T06:35:11;20.70;99.90
16974;DHT22;8603;46.944;7.412;2022-07-05T06:37:45;20.70;99.90
16974;DHT22;8603;46.944;7.412;2022-07-05T06:40:12;20.80;99.90
16974;DHT22;8603;46.944;7.412;2022-07-05T06:42:38;20.90;99.90
16974;DHT22;8603;46.944;7.412;2022-07-05T06:45:05;21.20;99.90
16974;DHT22;8603;46.944;7.412;2022-07-05T06:47:31;21.80;99.90
16974;DHT22;8603;46.944;7.412;2022-07-05T06:49:58;22.10;99.90
16974;DHT22;8603;46.944;7.412;2022-07-05T06:52:24;22.30;99.90
16974;DHT22;8603;46.944;7.412;2022-07-05T06:54:49;22.30;99.90
16974;DHT22;8603;46.944;7.412;2022-07-05T06:57:19;22.20;99.90
16974;DHT22;8603;46.944;7.412;2022-07-05T06:59:45;22.20;99.90
16974;DHT22;8603;46.944;7.412;2022-07-05T07:02:10;22.10;99.90
16974;DHT22;8603;46.944;7.412;2022-07-05T07:04:36;22.00;99.90
16974;DHT22;8603;46.944;7.412;2022-07-05T07:07:02;22.00;99.90
16974;DHT22;8603;46.944;7.412;2022-07-05T07:09:27;21.90;99.90
16974;DHT22;8603;46.944;7.412;2022-07-05T07:11:53;22.00;99.90
16974;DHT22;8603;46.944;7.412;2022-07-05T07:14:18;22.10;99.90
16974;DHT22;8603;46.944;7.412;2022-07-05T07:16:44;22.20;99.90
16974;DHT22;8603;46.944;7.412;2022-07-05T07:19:09;22.50;99.90
16974;DHT22;8603;46.944;7.412;2022-07-05T07:21:35;22.80;99.90
16974;DHT22;8603;46.944;7.412;2022-07-05T07:24:01;23.10;99.90
16974;DHT22;8603;46.944;7.412;2022-07-05T07:26:27;23.30;99.90
16974;DHT22;8603;46.944;7.412;2022-07-05T07:28:53;23.40;99.90
16974;DHT22;8603;46.944;7.412;2022-07-05T07:31:18;23.70;99.90
16974;DHT22;8603;46.944;7.412;2022-07-05T07:33:44;24.30;99.90
16974;DHT22;8603;46.944;7.412;2022-07-05T07:36:09;24.90;99.90
16974;DHT22;8603;46.944;7.412;2022-07-05T07:38:35;25.20;99.90
16974;DHT22;8603;46.944;7.412;2022-07-05T07:41:01;25.40;99.90
16974;DHT22;8603;46.944;7.412;2022-07-05T07:43:27;25.50;99.90
16974;DHT22;8603;46.944;7.412;2022-07-05T07:45:53;25.50;99.90
16974;DHT22;8603;46.944;7.412;2022-07-05T07:48:18;25.30;99.90
16974;DHT22;8603;46.944;7.412;2022-07-05T07:50:45;25.20;99.90
16974;DHT22;8603;46.944;7.412;2022-07-05T07:53:11;25.10;99.90
16974;DHT22;8603;46.944;7.412;2022-07-05T07:55:36;24.90;99.90
16974;DHT22;8603;46.944;7.412;2022-07-05T07:58:02;24.80;99.90
16974;DHT22;8603;46.944;7.412;2022-07-05T08:00:29;24.70;99.90
16974;DHT22;8603;46.944;7.412;2022-07-05T08:02:54;24.60;99.90
16974;DHT22;8603;46.944;7.412;2022-07-05T08:05:20;24.50;99.90
16974;DHT22;8603;46.944;7.412;2022-07-05T08:07:45;24.50;99.90
16974;DHT22;8603;46.944;7.412;2022-07-05T08:10:11;24.30;99.90
16974;DHT22;8603;46.944;7.412;2022-07-05T08:12:37;24.30;99.90
16974;DHT22;8603;46.944;7.412;2022-07-05T08:15:03;24.20;99.90
16974;DHT22;8603;46.944;7.412;2022-07-05T08:17:28;24.20;99.90
16974;DHT22;8603;46.944;7.412;2022-07-05T08:19:54;24.20;99.90
16974;DHT22;8603;46.944;7.412;2022-07-05T08:22:38;24.40;99.90
16974;DHT22;8603;46.944;7.412;2022-07-05T08:25:04;24.60;99.90
16974;DHT22;8603;46.944;7.412;2022-07-05T08:27:30;24.70;99.90
16974;DHT22;8603;46.944;7.412;2022-07-05T08:29:56;24.80;99.90
16974;DHT22;8603;46.944;7.412;2022-07-05T08:37:55;24.90;99.90
16974;DHT22;8603;46.944;7.412;2022-07-05T08:40:25;25.10;99.90
16974;DHT22;8603;46.944;7.412;2022-07-05T08:42:55;25.10;99.90
16974;DHT22;8603;46.944;7.412;2022-07-05T08:46:03;25.30;99.90
16974;DHT22;8603;46.944;7.412;2022-07-05T08:48:32;25.50;99.90
16974;DHT22;8603;46.944;7.412;2022-07-05T08:50:59;25.60;99.90
16974;DHT22;8603;46.944;7.412;2022-07-05T08:53:25;25.60;99.90
16974;DHT22;8603;46.944;7.412;2022-07-05T08:55:50;25.70;99.90
16974;DHT22;8603;46.944;7.412;2022-07-05T08:58:16;26.00;99.90
16974;DHT22;8603;46.944;7.412;2022-07-05T09:00:42;26.60;99.90
16974;DHT22;8603;46.944;7.412;2022-07-05T09:03:27;27.30;99.90
16974;DHT22;8603;46.944;7.412;2022-07-05T09:09:25;28.20;99.90
16974;DHT22;8603;46.944;7.412;2022-07-05T09:11:52;28.20;99.90
16974;DHT22;8603;46.944;7.412;2022-07-05T09:14:33;28.30;99.90
16974;DHT22;8603;46.944;7.412;2022-07-05T09:16:58;28.50;99.90
16974;DHT22;8603;46.944;7.412;2022-07-05T09:19:24;28.80;99.90
16974;DHT22;8603;46.944;7.412;2022-07-05T09:24:49;29.70;99.90
16974;DHT22;8603;46.944;7.412;2022-07-05T09:34:02;30.20;99.90
16974;DHT22;8603;46.944;7.412;2022-07-05T09:36:59;30.10;99.90
16974;DHT22;8603;46.944;7.412;2022-07-05T09:47:28;29.60;99.90
16974;DHT22;8603;46.944;7.412;2022-07-05T09:49:55;29.30;99.90
16974;DHT22;8603;46.944;7.412;2022-07-05T09:52:38;29.20;99.90
16974;DHT22;8603;46.944;7.412;2022-07-05T09:55:17;29.10;99.90
16974;DHT22;8603;46.944;7.412;2022-07-05T09:57:45;29.20;99.90
16974;DHT22;8603;46.944;7.412;2022-07-05T10:00:16;29.30;99.90
16974;DHT22;8603;46.944;7.412;2022-07-05T10:02:50;29.30;99.90
16974;DHT22;8603;46.944;7.412;2022-07-05T10:05:23;29.40;99.90
16974;DHT22;8603;46.944;7.412;2022-07-05T10:07:54;29.50;99.90
16974;DHT22;8603;46.944;7.412;2022-07-05T10:10:28;29.50;99.90
16974;DHT22;8603;46.944;7.412;2022-07-05T10:15:32;29.20;99.90
16974;DHT22;8603;46.944;7.412;2022-07-05T10:18:11;29.10;99.90
16974;DHT22;8603;46.944;7.412;2022-07-05T10:20:43;29.00;99.70
16974;DHT22;8603;46.944;7.412;2022-07-05T10:23:11;29.00;99.70
16974;DHT22;8603;46.944;7.412;2022-07-05T10:25:38;29.00;99.80
16974;DHT22;8603;46.944;7.412;2022-07-05T10:28:05;29.00;99.30
16974;DHT22;8603;46.944;7.412;2022-07-05T10:30:32;29.00;98.60
16974;DHT22;8603;46.944;7.412;2022-07-05T10:32:58;29.00;98.30
16974;DHT22;8603;46.944;7.412;2022-07-05T10:35:24;28.90;97.60
16974;DHT22;8603;46.944;7.412;2022-07-05T10:37:50;28.80;97.90
16974;DHT22;8603;46.944;7.412;2022-07-05T10:40:17;28.60;98.90
16974;DHT22;8603;46.944;7.412;2022-07-05T10:42:51;28.40;99.20
16974;DHT22;8603;46.944;7.412;2022-07-05T10:45:32;28.20;99.90
16974;DHT22;8603;46.944;7.412;2022-07-05T10:50:58;27.70;99.90
16974;DHT22;8603;46.944;7.412;2022-07-05T11:03:55;27.00;99.90
16974;DHT22;8603;46.944;7.412;2022-07-05T11:11:36;26.90;99.90
16974;DHT22;8603;46.944;7.412;2022-07-05T11:17:00;26.70;99.90
16974;DHT22;8603;46.944;7.412;2022-07-05T11:22:24;26.80;99.90
16974;DHT22;8603;46.944;7.412;2022-07-05T11:24:50;26.70;99.90
16974;DHT22;8603;46.944;7.412;2022-07-05T11:27:16;26.80;99.90
16974;DHT22;8603;46.944;7.412;2022-07-05T11:29:48;26.80;99.90
16974;DHT22;8603;46.944;7.412;2022-07-05T11:32:23;26.70;99.90
16974;DHT22;8603;46.944;7.412;2022-07-05T11:38:05;26.60;99.90
16974;DHT22;8603;46.944;7.412;2022-07-05T11:40:37;26.60;99.90
16974;DHT22;8603;46.944;7.412;2022-07-05T11:43:04;26.50;99.90
16974;DHT22;8603;46.944;7.412;2022-07-05T11:45:32;26.40;99.90
16974;DHT22;8603;46.944;7.412;2022-07-05T11:47:58;26.40;99.90
16974;DHT22;8603;46.944;7.412;2022-07-05T11:50:26;26.30;99.90
16974;DHT22;8603;46.944;7.412;2022-07-05T11:52:51;26.20;99.90
16974;DHT22;8603;46.944;7.412;2022-07-05T11:55:18;26.20;99.90
16974;DHT22;8603;46.944;7.412;2022-07-05T11:57:49;26.20;99.90
16974;DHT22;8603;46.944;7.412;2022-07-05T12:00:29;26.30;99.90
16974;DHT22;8603;46.944;7.412;2022-07-05T12:02:55;26.30;99.90
16974;DHT22;8603;46.944;7.412;2022-07-05T12:05:20;26.30;99.90
16974;DHT22;8603;46.944;7.412;2022-07-05T12:07:50;26.20;99.90
16974;DHT22;8603;46.944;7.412;2022-07-05T12:10:16;26.20;99.90
16974;DHT22;8603;46.944;7.412;2022-07-05T12:13:08;26.20;99.90
16974;DHT22;8603;46.944;7.412;2022-07-05T12:15:35;26.30;99.90
16974;DHT22;8603;46.944;7.412;2022-07-05T12:18:03;26.50;99.90
16974;DHT22;8603;46.944;7.412;2022-07-05T12:20:30;26.60;99.90
16974;DHT22;8603;46.944;7.412;2022-07-05T12:22:56;26.70;99.90
16974;DHT22;8603;46.944;7.412;2022-07-05T12:25:24;26.80;99.90
16974;DHT22;8603;46.944;7.412;2022-07-05T12:27:52;26.90;99.90
16974;DHT22;8603;46.944;7.412;2022-07-05T12:30:18;27.00;99.90
16974;DHT22;8603;46.944;7.412;2022-07-05T12:32:55;26.90;99.90
16974;DHT22;8603;46.944;7.412;2022-07-05T12:35:33;26.80;99.90
16974;DHT22;8603;46.944;7.412;2022-07-05T12:41:00;26.60;99.90
16974;DHT22;8603;46.944;7.412;2022-07-05T12:46:38;26.40;99.90
16974;DHT22;8603;46.944;7.412;2022-07-05T12:49:13;26.30;99.90
16974;DHT22;8603;46.944;7.412;2022-07-05T12:51:42;26.20;99.90
16974;DHT22;8603;46.944;7.412;2022-07-05T12:57:58;26.10;99.90
16974;DHT22;8603;46.944;7.412;2022-07-05T13:07:24;25.90;99.90
16974;DHT22;8603;46.944;7.412;2022-07-05T13:17:01;25.70;99.90
16974;DHT22;8603;46.944;7.412;2022-07-05T13:19:27;25.70;99.90
16974;DHT22;8603;46.944;7.412;2022-07-05T13:22:01;25.80;99.90
16974;DHT22;8603;46.944;7.412;2022-07-05T13:24:27;25.80;99.90
16974;DHT22;8603;46.944;7.412;2022-07-05T13:30:42;25.90;99.90
16974;DHT22;8603;46.944;7.412;2022-07-05T13:33:24;25.80;99.90
16974;DHT22;8603;46.944;7.412;2022-07-05T13:35:54;25.80;99.90
16974;DHT22;8603;46.944;7.412;2022-07-05T13:38:20;25.80;99.90
16974;DHT22;8603;46.944;7.412;2022-07-05T13:41:04;25.80;99.90
16974;DHT22;8603;46.944;7.412;2022-07-05T13:43:32;25.80;99.90
16974;DHT22;8603;46.944;7.412;2022-07-05T13:45:57;25.70;99.90
16974;DHT22;8603;46.944;7.412;2022-07-05T13:48:32;25.70;99.90
16974;DHT22;8603;46.944;7.412;2022-07-05T13:51:12;25.80;99.90
16974;DHT22;8603;46.944;7.412;2022-07-05T13:53:38;25.80;99.90
16974;DHT22;8603;46.944;7.412;2022-07-05T13:56:07;25.90;99.90
16974;DHT22;8603;46.944;7.412;2022-07-05T13:58:34;26.00;99.90
16974;DHT22;8603;46.944;7.412;2022-07-05T14:04:28;26.10;99.60
16974;DHT22;8603;46.944;7.412;2022-07-05T14:25:14;26.90;99.50
16974;DHT22;8603;46.944;7.412;2022-07-05T14:28:03;27.10;99.20
16974;DHT22;8603;46.944;7.412;2022-07-05T14:30:44;27.10;99.10
16974;DHT22;8603;46.944;7.412;2022-07-05T14:33:57;27.00;99.00
16974;DHT22;8603;46.944;7.412;2022-07-05T14:40:38;27.10;99.20
16974;DHT22;8603;46.944;7.412;2022-07-05T14:43:06;27.20;99.30
16974;DHT22;8603;46.944;7.412;2022-07-05T14:45:32;27.30;99.00
16974;DHT22;8603;46.944;7.412;2022-07-05T14:47:58;27.30;98.30
16974;DHT22;8603;46.944;7.412;2022-07-05T14:50:23;27.30;98.30
16974;DHT22;8603;46.944;7.412;2022-07-05T14:52:52;27.10;98.50
16974;DHT22;8603;46.944;7.412;2022-07-05T15:11:11;26.60;99.70
16974;DHT22;8603;46.944;7.412;2022-07-05T15:14:12;26.50;99.20
16974;DHT22;8603;46.944;7.412;2022-07-05T15:17:04;26.50;99.20
16974;DHT22;8603;46.944;7.412;2022-07-05T15:19:30;26.50;99.10
16974;DHT22;8603;46.944;7.412;2022-07-05T15:21:58;26.50;98.70
16974;DHT22;8603;46.944;7.412;2022-07-05T15:27:41;26.50;98.20
16974;DHT22;8603;46.944;7.412;2022-07-05T15:30:28;26.60;98.60
16974;DHT22;8603;46.944;7.412;2022-07-05T15:33:09;26.50;98.40
16974;DHT22;8603;46.944;7.412;2022-07-05T15:39:05;26.40;98.60
16974;DHT22;8603;46.944;7.412;2022-07-05T15:41:32;26.50;98.40
16974;DHT22;8603;46.944;7.412;2022-07-05T15:44:04;26.60;98.60
16974;DHT22;8603;46.944;7.412;2022-07-05T15:46:48;26.60;98.30
16974;DHT22;8603;46.944;7.412;2022-07-05T15:49:27;26.70;98.90
16974;DHT22;8603;46.944;7.412;2022-07-05T15:52:30;26.70;98.10
16974;DHT22;8603;46.944;7.412;2022-07-05T15:55:31;26.80;98.50
16974;DHT22;8603;46.944;7.412;2022-07-05T16:04:58;27.00;98.90
16974;DHT22;8603;46.944;7.412;2022-07-05T16:07:24;26.90;98.70
16974;DHT22;8603;46.944;7.412;2022-07-05T16:09:49;26.90;98.80
16974;DHT22;8603;46.944;7.412;2022-07-05T16:12:19;26.80;98.80
16974;DHT22;8603;46.944;7.412;2022-07-05T16:14:56;26.80;98.50
16974;DHT22;8603;46.944;7.412;2022-07-05T16:17:22;26.80;98.60
16974;DHT22;8603;46.944;7.412;2022-07-05T16:20:07;26.70;99.00
16974;DHT22;8603;46.944;7.412;2022-07-05T16:22:33;26.70;99.00
16974;DHT22;8603;46.944;7.412;2022-07-05T16:28:04;26.70;98.90
16974;DHT22;8603;46.944;7.412;2022-07-05T16:30:39;26.70;98.90
16974;DHT22;8603;46.944;7.412;2022-07-05T16:33:11;26.60;99.00
16974;DHT22;8603;46.944;7.412;2022-07-05T16:35:45;26.60;98.90
16974;DHT22;8603;46.944;7.412;2022-07-05T16:38:13;26.60;98.70
16974;DHT22;8603;46.944;7.412;2022-07-05T16:40:49;26.60;98.50
16974;DHT22;8603;46.944;7.412;2022-07-05T16:43:15;26.70;98.50
16974;DHT22;8603;46.944;7.412;2022-07-05T16:52:59;26.70;98.10
16974;DHT22;8603;46.944;7.412;2022-07-05T16:55:25;26.80;97.90
16974;DHT22;8603;46.944;7.412;2022-07-05T17:05:13;26.90;97.50
16974;DHT22;8603;46.944;7.412;2022-07-05T17:08:00;27.00;97.60
16974;DHT22;8603;46.944;7.412;2022-07-05T17:10:38;26.90;98.20
16974;DHT22;8603;46.944;7.412;2022-07-05T17:13:13;26.80;97.70
16974;DHT22;8603;46.944;7.412;2022-07-05T17:19:22;26.50;97.80
16974;DHT22;8603;46.944;7.412;2022-07-05T17:22:11;26.40;98.40
16974;DHT22;8603;46.944;7.412;2022-07-05T17:24:41;26.30;98.70
16974;DHT22;8603;46.944;7.412;2022-07-05T17:27:15;26.20;98.10
16974;DHT22;8603;46.944;7.412;2022-07-05T17:30:09;26.10;97.80
16974;DHT22;8603;46.944;7.412;2022-07-05T17:32:35;26.10;98.30
16974;DHT22;8603;46.944;7.412;2022-07-05T17:35:01;26.00;98.50
16974;DHT22;8603;46.944;7.412;2022-07-05T17:37:29;26.00;98.20
16974;DHT22;8603;46.944;7.412;2022-07-05T17:39:55;26.10;98.80
16974;DHT22;8603;46.944;7.412;2022-07-05T17:42:21;26.00;98.40
16974;DHT22;8603;46.944;7.412;2022-07-05T17:44:55;26.00;98.30
16974;DHT22;8603;46.944;7.412;2022-07-05T17:47:20;25.90;98.30
16974;DHT22;8603;46.944;7.412;2022-07-05T17:50:03;25.80;99.00
16974;DHT22;8603;46.944;7.412;2022-07-05T17:52:31;25.60;99.10
16974;DHT22;8603;46.944;7.412;2022-07-05T17:54:57;25.60;99.10
16974;DHT22;8603;46.944;7.412;2022-07-05T18:00:36;25.50;99.20
16974;DHT22;8603;46.944;7.412;2022-07-05T18:03:34;25.50;99.20
16974;DHT22;8603;46.944;7.412;2022-07-05T18:06:06;25.50;99.60
16974;DHT22;8603;46.944;7.412;2022-07-05T18:08:32;25.50;99.30
16974;DHT22;8603;46.944;7.412;2022-07-05T18:10:57;25.50;98.20
16974;DHT22;8603;46.944;7.412;2022-07-05T18:13:26;25.40;98.40
16974;DHT22;8603;46.944;7.412;2022-07-05T18:15:51;25.40;98.00
16974;DHT22;8603;46.944;7.412;2022-07-05T18:18:19;25.40;97.20
16974;DHT22;8603;46.944;7.412;2022-07-05T18:20:44;25.30;95.70
16974;DHT22;8603;46.944;7.412;2022-07-05T18:23:10;25.20;96.00
16974;DHT22;8603;46.944;7.412;2022-07-05T18:25:36;25.20;95.90
16974;DHT22;8603;46.944;7.412;2022-07-05T18:28:09;25.10;95.20
16974;DHT22;8603;46.944;7.412;2022-07-05T18:31:04;25.10;95.80
16974;DHT22;8603;46.944;7.412;2022-07-05T18:36:45;24.90;95.20
16974;DHT22;8603;46.944;7.412;2022-07-05T18:39:20;24.90;95.20
16974;DHT22;8603;46.944;7.412;2022-07-05T18:42:12;24.90;94.80
16974;DHT22;8603;46.944;7.412;2022-07-05T18:44:38;24.90;94.80
16974;DHT22;8603;46.944;7.412;2022-07-05T18:47:09;24.90;94.80